Christmas theme

*

Merry Christmas and Happy New Year!

 

Sretan Božić i Nova godina!

 

Sretan Božić i Nova godina!

Merry Christmas & Happy New Year

METAR

METAR LDZA 022230Z 05005KT 020V100 8000 -SG OVC005 M01/M02 Q1015 REFZRA R04/////// NOSIG =
METAR LDSP 022230Z AUTO 13013KT 9999 FEW035/// SCT040/// 17/10 Q1007=
METAR LDDU 022230Z 11016KT 9999 SCT033 13/09 Q1012 =
METAR LDZD 022230Z 12014KT 090V150 5000 -RA BR SCT020 BKN030 12/10 Q1005 =
METAR LDPL 022230Z 07012KT 7000 RA BKN016 OVC030 06/05 Q1004=
METAR LDOS 022230Z 08006KT 9999 BKN040 00/M01 Q1015=
METAR LDRI 022230Z 05016KT 9999 -RA BKN030 05/00 Q1006=

TAF

TAF AMD LDZA 022142Z 0221/0318 05005KT 6000 -SN SCT005 OVC020
                     TX01/0312Z TNM01/0221Z
        PROB40 TEMPO 0221/0318 2000 BR OVC006
        PROB30 TEMPO 0221/0318 -FZRA OVC005
               TEMPO 0304/0308 0800 SN OVC003=
TAF LDSP 021725Z 0218/0318 13012KT 9999 BKN025
                 TX15/0218Z TN12/0306Z
           TEMPO 0218/0315 3000 RA BKN014
    PROB40 TEMPO 0222/0304 15020G30KT 2500 +TSRA SCT010 FEW017CB BKN020
           BECMG 0304/0306 22008KT
           BECMG 0313/0315 31012KT=
TAF LDDU 021725Z 0218/0318 13015KT 9999 BKN027
                 TX14/0300Z TN12/0218Z
    PROB30 TEMPO 0218/0306 4000 RA
           TEMPO 0223/0306 12018G30KT
           BECMG 0306/0308 12020G34KT
    PROB40 TEMPO 0308/0318 13025G35KT 3000 SHRA SCT010 FEW015TCU BKN017
    PROB30 TEMPO 0308/0318 3000 TSRA SCT010 FEW015CB BKN017=
TAF LDZD 021725Z 0218/0318 10015KT 9999 BKN030
                 TX12/0302Z TN07/0317Z
           TEMPO 0218/0315 RA BKN012
    PROB40 TEMPO 0221/0303 15020G30KT 2500 +SHRA BKN010 SCT012TCU
    PROB30 TEMPO 0221/0303 19020G30KT 2000 +TSRA BKN010 FEW012CB
           BECMG 0303/0305 26008KT
           BECMG 0313/0315 33006KT=
TAF LDPL 021725Z 0218/0318 07018KT 9999 SCT025 OVC040
                 TX07/0311Z TN01/0306Z
           TEMPO 0218/0303 4000 RA
           BECMG 0223/0301 07008KT=
TAF LDOS 021725Z 0218/0318 10009KT 9999 SCT007 BKN045
                 TX08/0312Z TN00/0218Z
           TEMPO 0218/0221 -FZRA=
TAF AMD LDSB 021207Z 0212/0306 CNL=
TAF LDRI 021725Z 0218/0318 05015KT 9999 BKN030 OVC075
                 TX07/0311Z TN02/0219Z
    PROB30 TEMPO 0218/0221 05015G30KT
           TEMPO 0218/0312 4000 RA
    PROB40 TEMPO 0300/0306 2000 +RA
           BECMG 0301/0303 05006KT=

SIGMET

LDZO SIGMET F11 VALID 022200/022345 LDZA-
LDZO ZAGREB FIR SEV ICE (FZRA) OBS AT 2200Z WI N4630 E01637 - N4547
E01812 - N4504 E01813 - N4355 E01611 - N4426 E01528 - N4538 E01537 -
N4630 E01637 SFC/6000FT STNR NC=
LDZO SIGMET T05 VALID 022120/022300 LDZA-
LDZO ZAGREB FIR EMBD TS OBS AT 2120Z WI N4424 E01330 - N4457 E01451
- N4352 E01610 - N4315 E01453 - N4424 E01330 TOP FL300 STNR NC=
LDZO SIGMET U02 VALID 021945/022345 LDZA-
LDZO ZAGREB FIR SEV TURB FCST AT 1945Z WI N4527 E01429 - N4506
E01505 - N4421 E01510 - N4436 E01437 - N4518 E01409 - N4527 E01429
SFC/6000FT STNR WKN=

AIRMET

If you cannot log in with your user account, please contact stjepko.jancijev@crocontrol.hr.
Specifically, the website deactivates user accounts that have not been used for more than 365 days, so they must be reactivated.
 

         

      Politika MET podataka      

 

Ukoliko se svojim korisničkim računom ne možete logirati na web stranicu, molim vas da se obratite na stjepko.jancijev@crocontrol.hr.

Naime, web stranica deaktivira korisničke račune koji nisu korišteni više od 365 dana te ih je potrebno ponovno aktivirati.